createdAt,value
2022-11-21T00:01:37.488Z,21.03
2022-11-21T00:04:04.556Z,19.20
2022-11-21T00:06:31.251Z,22.40
2022-11-21T00:08:57.944Z,19.37
2022-11-21T00:11:24.856Z,19.60
2022-11-21T00:13:51.551Z,24.07
2022-11-21T00:16:18.465Z,21.23
2022-11-21T00:18:46.555Z,18.77
2022-11-21T00:21:15.031Z,19.40
2022-11-21T00:23:42.131Z,17.40
2022-11-21T00:26:10.423Z,21.57
2022-11-21T00:28:37.439Z,24.10
2022-11-21T00:31:05.529Z,16.07
2022-11-21T00:33:34.283Z,22.33
2022-11-21T00:36:07.371Z,18.27
2022-11-21T00:38:34.126Z,22.53
2022-11-21T00:41:00.837Z,21.23
2022-11-21T00:43:27.610Z,17.37
2022-11-21T00:45:54.334Z,21.40
2022-11-21T00:48:21.024Z,16.47
2022-11-21T00:50:49.669Z,18.67
2022-11-21T00:53:17.720Z,17.30
2022-11-21T00:55:44.450Z,20.07
2022-11-21T00:58:11.136Z,11.43
2022-11-21T01:00:37.916Z,18.50
2022-11-21T01:03:04.663Z,15.40
2022-11-21T01:05:32.380Z,15.17
2022-11-21T01:07:59.112Z,16.90
2022-11-21T01:10:27.274Z,15.90
2022-11-21T01:12:53.983Z,17.17
2022-11-21T01:15:20.849Z,17.77
2022-11-21T01:17:47.663Z,16.80
2022-11-21T01:20:14.456Z,14.70
2022-11-21T01:22:41.156Z,14.50
2022-11-21T01:25:08.347Z,19.50
2022-11-21T01:27:36.549Z,13.17
2022-11-21T01:30:03.613Z,14.23
2022-11-21T01:32:30.283Z,19.60
2022-11-21T01:34:56.983Z,17.90
2022-11-21T01:37:23.723Z,14.00
2022-11-21T01:39:50.428Z,16.03
2022-11-21T01:42:17.156Z,15.97
2022-11-21T01:44:51.115Z,14.40
2022-11-21T01:47:17.872Z,18.67
2022-11-21T01:49:46.826Z,13.93
2022-11-21T01:52:17.970Z,10.90
2022-11-21T01:54:48.860Z,16.50
2022-11-21T01:57:20.192Z,20.27
2022-11-21T01:59:53.164Z,24.27
2022-11-21T02:02:23.217Z,22.53
2022-11-21T02:04:52.047Z,20.60
2022-11-21T02:07:21.849Z,20.60
2022-11-21T02:09:52.232Z,22.63
2022-11-21T02:12:24.976Z,20.77
2022-11-21T02:14:54.625Z,21.33
2022-11-21T02:17:21.624Z,23.20
2022-11-21T02:19:53.949Z,24.37
2022-11-21T02:22:27.907Z,22.40
2022-11-21T02:25:05.753Z,26.47
2022-11-21T02:27:32.954Z,23.47
2022-11-21T02:30:00.962Z,24.40
2022-11-21T02:32:33.268Z,22.83
2022-11-21T02:35:00.118Z,19.20
2022-11-21T02:37:27.216Z,24.50
2022-11-21T02:39:54.778Z,21.67
2022-11-21T02:42:28.464Z,23.63
2022-11-21T02:45:07.851Z,24.87
2022-11-21T02:47:35.473Z,18.87
2022-11-21T02:50:10.021Z,18.63
2022-11-21T02:52:36.734Z,21.07
2022-11-21T02:55:03.792Z,19.00
2022-11-21T02:57:31.860Z,25.17
2022-11-21T02:59:58.553Z,23.10
2022-11-21T03:02:25.360Z,19.13
2022-11-21T03:04:52.142Z,17.57
2022-11-21T03:07:18.912Z,21.70
2022-11-21T03:09:45.645Z,25.43
2022-11-21T03:12:12.372Z,25.37
2022-11-21T03:14:40.439Z,25.43
2022-11-21T03:17:07.165Z,29.07
2022-11-21T03:19:33.879Z,25.17
2022-11-21T03:22:00.645Z,20.60
2022-11-21T03:24:27.464Z,24.80
2022-11-21T03:26:54.365Z,24.70
2022-11-21T03:29:21.074Z,26.07
2022-11-21T03:31:49.184Z,25.40
2022-11-21T03:34:15.909Z,24.13
2022-11-21T03:36:42.612Z,23.17
2022-11-21T03:39:09.489Z,26.67
2022-11-21T03:41:36.241Z,21.77
2022-11-21T03:44:05.080Z,24.53
2022-11-21T03:46:34.773Z,23.73
2022-11-21T03:49:03.465Z,28.43
2022-11-21T03:51:30.527Z,23.40
2022-11-21T03:53:57.445Z,22.57
2022-11-21T03:56:24.515Z,27.20
2022-11-21T03:58:51.478Z,24.87
2022-11-21T04:01:18.206Z,25.20
2022-11-21T04:03:45.659Z,24.00
2022-11-21T04:06:16.942Z,23.80
2022-11-21T04:08:44.112Z,23.00
2022-11-21T04:11:11.484Z,24.23
2022-11-21T04:13:38.592Z,25.30
2022-11-21T04:16:06.120Z,26.03
2022-11-21T04:18:34.309Z,25.60
2022-11-21T04:21:03.943Z,24.37
2022-11-21T04:23:32.152Z,18.90
2022-11-21T04:25:59.059Z,25.63
2022-11-21T04:28:26.159Z,24.23
2022-11-21T04:30:55.066Z,27.07
2022-11-21T04:33:22.112Z,25.20
2022-11-21T04:35:48.850Z,23.80
2022-11-21T04:38:15.619Z,24.50
2022-11-21T04:40:44.564Z,22.50
2022-11-21T04:43:11.374Z,19.67
2022-11-21T04:45:38.101Z,24.50
2022-11-21T04:48:05.045Z,24.87
2022-11-21T04:50:32.222Z,23.20
2022-11-21T04:52:59.003Z,23.80
2022-11-21T04:55:30.027Z,23.47
2022-11-21T04:57:58.449Z,23.30
2022-11-21T05:00:25.346Z,24.53
2022-11-21T05:02:52.199Z,23.80
2022-11-21T05:05:19.261Z,20.23
2022-11-21T05:07:46.026Z,21.10
2022-11-21T05:10:12.946Z,27.10
2022-11-21T05:12:39.639Z,20.37
2022-11-21T05:15:08.422Z,22.60
2022-11-21T05:17:35.145Z,22.57
2022-11-21T05:20:02.055Z,21.97
2022-11-21T05:22:28.770Z,20.83
2022-11-21T05:24:55.593Z,23.47
2022-11-21T05:27:22.646Z,27.90
2022-11-21T05:29:49.331Z,17.97
2022-11-21T05:32:17.420Z,21.73
2022-11-21T05:34:44.124Z,19.20
2022-11-21T05:37:10.814Z,21.67
2022-11-21T05:39:37.556Z,18.80
2022-11-21T05:42:04.357Z,19.60
2022-11-21T05:44:31.339Z,21.00
2022-11-21T05:46:58.257Z,18.60
2022-11-21T05:49:26.524Z,21.87
2022-11-21T05:51:53.235Z,21.70
2022-11-21T05:54:19.926Z,22.50
2022-11-21T05:56:46.653Z,19.10
2022-11-21T05:59:13.603Z,24.07
2022-11-21T06:01:40.309Z,22.57
2022-11-21T06:04:07.610Z,22.80
2022-11-21T06:06:36.429Z,21.50
2022-11-21T06:09:04.469Z,20.67
2022-11-21T06:11:31.262Z,23.40
2022-11-21T06:13:57.974Z,19.63
2022-11-21T06:16:24.669Z,18.40
2022-11-21T06:18:57.911Z,17.47
2022-11-21T06:21:27.048Z,17.50
2022-11-21T06:23:56.400Z,19.40
2022-11-21T06:26:24.350Z,18.33
2022-11-21T06:28:51.456Z,18.73
2022-11-21T06:31:20.173Z,15.77
2022-11-21T06:33:47.179Z,14.50
2022-11-21T06:36:15.564Z,18.73
2022-11-21T06:38:42.561Z,16.57
2022-11-21T06:41:13.311Z,13.10
2022-11-21T06:43:40.285Z,16.40
2022-11-21T06:46:07.313Z,14.47
2022-11-21T06:48:35.247Z,16.27
2022-11-21T06:51:04.749Z,22.53
2022-11-21T06:53:31.493Z,16.80
2022-11-21T06:55:58.785Z,16.30
2022-11-21T06:58:27.064Z,16.70
2022-11-21T07:00:53.882Z,17.20
2022-11-21T07:03:20.758Z,15.93
2022-11-21T07:05:47.529Z,18.57
2022-11-21T07:08:14.497Z,19.17
2022-11-21T07:10:57.334Z,19.63
2022-11-21T07:13:29.749Z,17.30
2022-11-21T07:16:02.003Z,21.23
2022-11-21T07:18:28.724Z,20.93
2022-11-21T07:20:58.033Z,23.77
2022-11-21T07:23:24.778Z,18.87
2022-11-21T07:25:51.649Z,15.80
2022-11-21T07:28:18.436Z,20.20
2022-11-21T07:30:46.795Z,18.63
2022-11-21T07:33:13.513Z,20.03
2022-11-21T07:35:40.205Z,25.87
2022-11-21T07:38:06.891Z,20.43
2022-11-21T07:40:33.635Z,19.73
2022-11-21T07:43:02.262Z,22.30
2022-11-21T07:45:31.295Z,19.27
2022-11-21T07:48:00.339Z,16.47
2022-11-21T07:50:27.665Z,20.80
2022-11-21T07:52:57.573Z,18.17
2022-11-21T07:55:24.436Z,19.20
2022-11-21T07:57:58.181Z,17.70
2022-11-21T08:00:25.200Z,20.30
2022-11-21T08:02:52.026Z,22.00
2022-11-21T08:05:20.181Z,19.30
2022-11-21T08:07:46.950Z,17.37
2022-11-21T08:10:14.504Z,20.80
2022-11-21T08:12:41.223Z,16.70
2022-11-21T08:15:08.661Z,19.20
2022-11-21T08:17:35.461Z,15.53
2022-11-21T08:20:02.171Z,21.60
2022-11-21T08:22:30.243Z,20.40
2022-11-21T08:24:57.019Z,20.57
2022-11-21T08:27:23.810Z,18.40
2022-11-21T08:29:50.597Z,17.90
2022-11-21T08:32:17.286Z,16.87
2022-11-21T08:34:44.048Z,17.20
2022-11-21T08:37:10.766Z,16.87
2022-11-21T08:39:38.799Z,17.52
2022-11-21T08:42:05.856Z,13.85
2022-11-21T08:44:34.208Z,14.47
2022-11-21T08:47:01.965Z,15.13
2022-11-21T08:49:29.022Z,15.35
2022-11-21T08:51:55.733Z,15.03
2022-11-21T08:54:24.283Z,14.07
2022-11-21T08:56:53.174Z,13.03
2022-11-21T08:59:19.884Z,13.25
2022-11-21T09:01:46.679Z,15.83
2022-11-21T09:04:13.514Z,19.50
2022-11-21T09:06:40.269Z,13.53
2022-11-21T09:09:07.414Z,16.63
2022-11-21T09:11:35.279Z,15.37
2022-11-21T09:14:03.693Z,12.83
2022-11-21T09:16:30.497Z,13.20
2022-11-21T09:18:57.191Z,13.50
2022-11-21T09:21:24.060Z,17.67
2022-11-21T09:23:50.793Z,11.73
2022-11-21T09:26:17.512Z,17.17
2022-11-21T09:28:44.238Z,13.17
2022-11-21T09:31:12.620Z,12.47
2022-11-21T09:33:39.305Z,12.17
2022-11-21T09:36:06.105Z,18.27
2022-11-21T09:38:32.879Z,17.20
2022-11-21T09:41:16.265Z,20.13
2022-11-21T09:43:55.506Z,17.40
2022-11-21T09:46:30.288Z,17.20
2022-11-21T09:49:00.485Z,14.60
2022-11-21T09:51:30.924Z,15.57
2022-11-21T09:54:01.833Z,18.13
2022-11-21T09:56:33.949Z,16.37
2022-11-21T09:59:25.405Z,17.00
2022-11-21T10:01:53.638Z,16.77
2022-11-21T10:04:20.498Z,19.67
2022-11-21T10:06:55.682Z,20.13
2022-11-21T10:09:32.568Z,20.23
2022-11-21T10:12:06.710Z,16.50
2022-11-21T10:14:50.036Z,21.50
2022-11-21T10:17:28.964Z,16.60
2022-11-21T10:20:16.987Z,19.00
2022-11-21T10:23:02.582Z,25.30
2022-11-21T10:25:33.157Z,18.27
2022-11-21T10:28:04.755Z,26.60
2022-11-21T10:30:31.528Z,23.50
2022-11-21T10:33:03.340Z,22.07
2022-11-21T10:35:38.250Z,20.57
2022-11-21T10:38:19.690Z,25.33
2022-11-21T10:40:50.567Z,24.00
2022-11-21T10:43:28.856Z,25.77
2022-11-21T10:45:55.819Z,27.40
2022-11-21T10:48:23.949Z,23.83
2022-11-21T10:51:10.766Z,23.40
2022-11-21T10:53:37.520Z,26.93
2022-11-21T10:56:07.628Z,27.83
2022-11-21T10:58:43.905Z,26.33
2022-11-21T11:01:22.121Z,29.93
2022-11-21T11:04:27.671Z,27.43
2022-11-21T11:06:52.505Z,20.30
2022-11-21T11:09:27.361Z,23.87
2022-11-21T11:11:54.553Z,22.83
2022-11-21T11:14:31.886Z,22.60
2022-11-21T11:16:59.257Z,22.00
2022-11-21T11:19:35.543Z,13.77
2022-11-21T11:22:27.206Z,17.57
2022-11-21T11:24:58.979Z,14.10
2022-11-21T11:27:28.112Z,19.77
2022-11-21T11:29:54.867Z,19.47
2022-11-21T11:32:22.487Z,29.10
2022-11-21T11:34:57.598Z,20.80
2022-11-21T11:37:37.137Z,25.90
2022-11-21T11:40:18.779Z,28.80
2022-11-21T11:42:58.894Z,29.30
2022-11-21T11:46:03.459Z,25.03
2022-11-21T11:48:30.194Z,23.90
2022-11-21T11:51:03.316Z,25.50
2022-11-21T11:53:36.995Z,23.83
2022-11-21T11:56:11.296Z,21.10
2022-11-21T11:58:44.523Z,23.50
2022-11-21T12:01:16.718Z,24.50
2022-11-21T12:03:52.093Z,23.50
2022-11-21T12:06:46.808Z,21.67
2022-11-21T12:09:22.668Z,23.20
2022-11-21T12:11:56.660Z,16.33
2022-11-21T12:14:38.735Z,20.90
2022-11-21T12:17:08.738Z,20.37
2022-11-21T12:19:37.006Z,14.50
2022-11-21T12:22:05.233Z,16.60
2022-11-21T12:24:32.307Z,12.87
2022-11-21T12:27:06.114Z,13.17
2022-11-21T12:29:47.115Z,10.63
2022-11-21T12:32:27.714Z,11.80
2022-11-21T12:35:13.285Z,11.03
2022-11-21T12:38:01.698Z,15.00
2022-11-21T12:40:43.482Z,14.07
2022-11-21T12:43:20.627Z,11.67
2022-11-21T12:45:50.703Z,12.10
2022-11-21T12:48:23.224Z,12.87
2022-11-21T12:51:00.498Z,13.37
2022-11-21T12:53:40.186Z,15.20
2022-11-21T12:56:13.891Z,13.73
2022-11-21T12:58:47.681Z,14.30
2022-11-21T13:01:27.624Z,14.07
2022-11-21T13:04:00.124Z,11.27
2022-11-21T13:06:29.227Z,13.00
2022-11-21T13:09:00.596Z,17.23
2022-11-21T13:11:39.238Z,14.60
2022-11-21T13:14:12.610Z,12.70
2022-11-21T13:16:44.354Z,15.17
2022-11-21T13:19:23.101Z,17.97
2022-11-21T13:21:51.314Z,23.23
2022-11-21T13:24:55.910Z,14.43
2022-11-21T13:27:37.870Z,24.27
2022-11-21T13:30:23.614Z,8.60
2022-11-21T13:32:51.536Z,13.20
2022-11-21T13:36:03.975Z,12.33
2022-11-21T13:38:30.902Z,22.07
2022-11-21T13:40:59.063Z,13.20
2022-11-21T13:43:35.194Z,16.57
2022-11-21T13:46:02.356Z,16.93
2022-11-21T13:48:58.005Z,14.57
2022-11-21T13:51:55.149Z,15.67
2022-11-21T13:55:18.912Z,15.40
2022-11-21T13:58:00.853Z,10.50
2022-11-21T14:00:40.111Z,14.20
2022-11-21T14:03:36.090Z,14.20
2022-11-21T14:06:32.636Z,11.57
2022-11-21T14:09:23.853Z,13.37
2022-11-21T14:11:54.553Z,11.57
2022-11-21T14:14:30.125Z,10.03
2022-11-21T14:17:17.347Z,10.17
2022-11-21T14:19:44.222Z,8.93
2022-11-21T14:22:16.455Z,15.03
2022-11-21T14:24:43.473Z,8.73
2022-11-21T14:27:21.663Z,8.87
2022-11-21T14:29:49.757Z,8.27
2022-11-21T14:32:16.831Z,9.73
2022-11-21T14:34:43.538Z,10.23
2022-11-21T14:37:13.575Z,7.80
2022-11-21T14:39:44.405Z,10.83
2022-11-21T14:42:14.602Z,9.80
2022-11-21T14:44:41.877Z,8.80
2022-11-21T14:47:17.311Z,6.83
2022-11-21T14:49:52.422Z,10.17
2022-11-21T14:52:24.618Z,8.30
2022-11-21T14:55:27.887Z,18.30
2022-11-21T14:57:43.109Z,8.67
2022-11-21T15:00:36.277Z,9.47
2022-11-21T15:03:03.542Z,9.07
2022-11-21T15:05:55.014Z,9.80
2022-11-21T15:08:46.725Z,6.70
2022-11-21T15:11:09.713Z,9.57
2022-11-21T15:13:58.447Z,9.63
2022-11-21T15:16:24.395Z,11.03
2022-11-21T15:18:52.430Z,7.60
2022-11-21T15:21:19.296Z,10.50
2022-11-21T15:23:47.182Z,8.10
2022-11-21T15:26:28.601Z,8.50
2022-11-21T15:28:56.446Z,10.83
2022-11-21T15:31:23.294Z,7.43
2022-11-21T15:37:03.031Z,11.57
2022-11-21T15:39:29.819Z,9.60
2022-11-21T15:42:31.408Z,15.83
2022-11-21T15:44:59.665Z,10.03
2022-11-21T15:47:26.485Z,7.90
2022-11-21T15:49:54.654Z,9.67
2022-11-21T15:52:21.570Z,9.37
2022-11-21T15:54:48.302Z,9.33
2022-11-21T15:57:16.752Z,9.93
2022-11-21T15:59:44.371Z,8.67
2022-11-21T16:02:13.019Z,10.20
2022-11-21T16:04:39.772Z,10.30
2022-11-21T16:07:07.927Z,10.20
2022-11-21T16:09:34.712Z,12.00
2022-11-21T16:12:01.453Z,14.97
2022-11-21T16:14:28.192Z,12.73
2022-11-21T16:16:54.949Z,13.57
2022-11-21T16:19:21.680Z,15.57
2022-11-21T16:21:48.396Z,10.13
2022-11-21T16:24:16.740Z,10.37
2022-11-21T16:26:43.430Z,11.00
2022-11-21T16:29:10.856Z,12.47
2022-11-21T16:31:37.562Z,9.83
2022-11-21T16:34:04.304Z,10.80
2022-11-21T16:36:32.075Z,15.33
2022-11-21T16:39:05.162Z,14.43
2022-11-21T16:41:36.091Z,14.83
2022-11-21T16:44:02.926Z,12.77
2022-11-21T16:46:29.750Z,16.30
2022-11-21T16:49:00.936Z,15.43
2022-11-21T16:51:28.595Z,15.57
2022-11-21T16:53:57.340Z,16.70
2022-11-21T16:56:24.404Z,17.87
2022-11-21T16:58:52.665Z,17.50
2022-11-21T17:01:23.760Z,16.87
2022-11-21T17:03:51.767Z,19.23
2022-11-21T17:06:21.790Z,16.57
2022-11-21T17:08:48.944Z,19.53
2022-11-21T17:11:17.609Z,26.30
2022-11-21T17:13:45.508Z,19.50
2022-11-21T17:16:15.436Z,21.47
2022-11-21T17:18:42.682Z,16.93
2022-11-21T17:21:11.415Z,20.40
2022-11-21T17:23:39.703Z,19.97
2022-11-21T17:26:07.660Z,18.63
2022-11-21T17:28:34.682Z,21.97
2022-11-21T17:31:06.256Z,22.83
2022-11-21T17:33:34.508Z,20.77
2022-11-21T17:36:02.468Z,21.13
2022-11-21T17:38:29.241Z,23.07
2022-11-21T17:40:59.812Z,21.43
2022-11-21T17:43:26.573Z,20.60
2022-11-21T17:45:57.787Z,17.97
2022-11-21T17:48:24.568Z,15.77
2022-11-21T17:50:59.357Z,21.70
2022-11-21T17:53:26.649Z,15.83
2022-11-21T18:01:05.452Z,21.10
2022-11-21T18:03:32.598Z,24.27
2022-11-21T18:06:01.820Z,24.77
2022-11-21T18:08:30.360Z,22.63
2022-11-21T18:10:57.102Z,25.93
2022-11-21T18:13:24.070Z,30.83
2022-11-21T18:15:50.837Z,28.77
2022-11-21T18:18:17.577Z,27.30
2022-11-21T18:20:44.345Z,30.77
2022-11-21T18:23:12.512Z,30.93
2022-11-21T18:25:39.419Z,27.37
2022-11-21T18:28:06.114Z,34.20
2022-11-21T18:30:33.061Z,33.10
2022-11-21T18:32:59.807Z,28.13
2022-11-21T18:35:26.653Z,23.97
2022-11-21T18:37:53.415Z,30.43
2022-11-21T18:40:21.714Z,23.40
2022-11-21T18:42:48.410Z,22.40
2022-11-21T18:45:15.232Z,24.80
2022-11-21T18:47:41.913Z,27.37
2022-11-21T18:50:09.354Z,31.17
2022-11-21T18:52:36.064Z,29.93
2022-11-21T18:55:02.851Z,29.33
2022-11-21T18:57:31.091Z,27.50
2022-11-21T18:59:57.802Z,24.23
2022-11-21T19:02:24.522Z,20.67
2022-11-21T19:04:51.244Z,28.53
2022-11-21T19:07:18.055Z,22.93
2022-11-21T19:09:44.831Z,33.80
2022-11-21T19:12:11.583Z,28.90
2022-11-21T19:14:39.753Z,33.33
2022-11-21T19:17:06.470Z,25.50
2022-11-21T19:19:34.953Z,27.47
2022-11-21T19:22:02.129Z,22.83
2022-11-21T19:24:28.861Z,17.70
2022-11-21T19:26:55.635Z,25.10
2022-11-21T19:29:22.361Z,21.77
2022-11-21T19:31:50.419Z,23.60
2022-11-21T19:34:17.458Z,22.03
2022-11-21T19:36:45.050Z,25.60
2022-11-21T19:39:11.997Z,31.53
2022-11-21T19:41:39.036Z,27.43
2022-11-21T19:44:05.794Z,21.67
2022-11-21T19:46:34.702Z,24.67
2022-11-21T19:49:03.794Z,27.07
2022-11-21T19:51:32.626Z,20.30
2022-11-21T19:54:01.251Z,26.07
2022-11-21T19:56:28.100Z,26.10
2022-11-21T19:58:56.545Z,26.80
2022-11-21T20:01:24.733Z,20.03
2022-11-21T20:03:53.817Z,23.63
2022-11-21T20:06:24.025Z,17.80
2022-11-21T20:08:52.108Z,18.87
2022-11-21T20:11:18.857Z,23.60
2022-11-21T20:13:45.802Z,21.93
2022-11-21T20:16:20.628Z,25.57
2022-11-21T20:18:47.814Z,22.83
2022-11-21T20:21:16.289Z,23.20
2022-11-21T20:23:45.096Z,23.90
2022-11-21T20:26:11.912Z,22.33
2022-11-21T20:28:39.220Z,22.80
2022-11-21T20:31:07.395Z,25.63
2022-11-21T20:33:35.093Z,21.43
2022-11-21T20:36:06.329Z,18.00
2022-11-21T20:38:33.262Z,19.90
2022-11-21T20:41:01.448Z,18.53
2022-11-21T20:43:52.574Z,20.23
2022-11-21T20:46:20.199Z,25.10
2022-11-21T20:48:47.783Z,17.13
2022-11-21T20:54:03.699Z,21.23
2022-11-21T20:56:33.848Z,16.70
2022-11-21T20:59:00.562Z,17.50
2022-11-21T21:01:27.623Z,23.03
2022-11-21T21:03:54.596Z,13.32
2022-11-21T21:06:21.584Z,20.70
2022-11-21T21:08:48.289Z,21.20
2022-11-21T21:11:36.718Z,21.00
2022-11-21T21:14:04.721Z,19.33
2022-11-21T21:16:31.484Z,22.13
2022-11-21T21:18:58.163Z,22.77
2022-11-21T21:21:26.511Z,23.60
2022-11-21T21:23:56.116Z,20.43
2022-11-21T21:26:24.720Z,18.57
2022-11-21T21:28:51.886Z,22.97
2022-11-21T21:31:21.823Z,22.40
2022-11-21T21:33:49.018Z,23.77
2022-11-21T21:36:18.051Z,18.13
2022-11-21T21:38:45.185Z,22.97
2022-11-21T21:41:13.627Z,20.67
2022-11-21T21:43:41.051Z,28.77
2022-11-21T21:46:09.745Z,18.50
2022-11-21T21:48:38.223Z,18.30
2022-11-21T21:51:05.980Z,14.70
2022-11-21T21:53:36.097Z,19.53
2022-11-21T21:56:03.667Z,24.93
2022-11-21T21:58:32.977Z,25.50
2022-11-21T22:01:02.967Z,20.63
2022-11-21T22:03:29.782Z,20.60
2022-11-21T22:06:01.762Z,21.03
2022-11-21T22:08:30.276Z,23.90
2022-11-21T22:11:04.756Z,22.97
2022-11-21T22:13:31.744Z,26.03
2022-11-21T22:15:59.758Z,23.80
2022-11-21T22:18:26.765Z,19.67
2022-11-21T22:20:53.751Z,25.57
2022-11-21T22:23:22.412Z,21.33
2022-11-21T22:25:49.594Z,24.50
2022-11-21T22:28:16.305Z,19.73
2022-11-21T22:30:43.056Z,24.67
2022-11-21T22:33:09.778Z,24.23
2022-11-21T22:35:36.526Z,29.00
2022-11-21T22:38:03.258Z,23.50
2022-11-21T22:40:31.372Z,22.07
2022-11-21T22:42:58.091Z,21.00
2022-11-21T22:45:25.377Z,22.77
2022-11-21T22:47:52.131Z,19.63
2022-11-21T22:50:18.841Z,25.43
2022-11-21T22:52:45.616Z,20.40
2022-11-21T22:55:12.383Z,21.20
2022-11-21T22:57:40.679Z,25.37
2022-11-21T23:00:08.954Z,18.63
2022-11-21T23:02:35.650Z,25.90
2022-11-21T23:05:02.921Z,24.97
2022-11-21T23:07:30.073Z,19.07
2022-11-21T23:09:56.922Z,23.83
2022-11-21T23:12:24.233Z,24.10
2022-11-21T23:14:52.760Z,21.60
2022-11-21T23:17:19.789Z,27.90
2022-11-21T23:19:46.700Z,24.30
2022-11-21T23:22:13.388Z,28.40
2022-11-21T23:24:40.113Z,26.20
2022-11-21T23:27:06.841Z,20.80
2022-11-21T23:29:33.551Z,23.50
2022-11-21T23:32:01.673Z,30.80
2022-11-21T23:34:28.464Z,31.50
2022-11-21T23:36:55.160Z,25.27
2022-11-21T23:39:21.879Z,28.40
2022-11-21T23:41:48.564Z,30.83
2022-11-21T23:44:15.283Z,25.43
2022-11-21T23:46:41.966Z,31.20
2022-11-21T23:49:10.048Z,23.93
2022-11-21T23:51:36.886Z,24.40
2022-11-21T23:54:03.725Z,30.50
2022-11-21T23:56:30.466Z,26.97
2022-11-21T23:58:57.308Z,25.43
